This is the latest recevied weather packets stored in our database for station/object KD4UFD. If no packets are shown the sender has not sent any weather packets the latest 10 day(s).
| Time | Temp. | Humidity | Pressure | Rain* | Wind** | Luminosity | Snow |
|---|---|---|---|---|---|---|---|
| 1778051783 | 21.11° C | 63% | 1009.3 hPa | 0 mm | - | 0 W/m² | - |
| 1778051480 | 21.11° C | 62% | 1009.3 hPa | 0 mm | - | 0 W/m² | - |
| 1778051177 | 21.11° C | 62% | 1009.3 hPa | 0 mm | - | 0 W/m² | - |
| 1778050874 | 21.11° C | 62% | 1009.3 hPa | 0 mm | - | 0 W/m² | - |
| 1778050572 | 21.11° C | 63% | 1009 hPa | 0 mm | - | 0 W/m² | - |
| 1778050268 | 21.11° C | 62% | 1009.5 hPa | 0 mm | - | 0 W/m² | - |
| 1778049965 | 21.11° C | 62% | 1009 hPa | 0 mm | - | 0 W/m² | - |
| 1778049661 | 20.56° C | 63% | 1009.5 hPa | 0 mm | - | 0 W/m² | - |
| 1778049359 | 20.56° C | 62% | 1009.3 hPa | 0 mm | - | 0 W/m² | - |
| 1778049056 | 20.56° C | 63% | 1009.2 hPa | 0 mm | - | 0 W/m² | - |
| 1778048754 | 20° C | 63% | 1009.5 hPa | 0 mm | - | 0 W/m² | - |
| 1778048451 | 19.44° C | 66% | 1009.6 hPa | 0 mm | - | 0 W/m² | - |
| 1778048147 | 18.89° C | 67% | 1009.9 hPa | 0 mm | - | 0 W/m² | - |
| 1778047845 | 18.33° C | 71% | 1010 hPa | 0 mm | - | 0 W/m² | - |
| 1778047543 | 17.78° C | 74% | 1010.2 hPa | 0 mm | - | 0 W/m² | - |
| 1778047240 | 17.78° C | 74% | 1010.6 hPa | 0 mm | - | 0 W/m² | - |
| 1778046937 | 17.78° C | 75% | 1010.7 hPa | 0 mm | - | 0 W/m² | - |
| 1778046634 | 18.33° C | 75% | 1010.5 hPa | 0 mm | - | 0 W/m² | - |
| 1778046331 | 17.78° C | 73% | 1010.7 hPa | 0 mm | - | 0 W/m² | - |
| 1778046026 | 17.78° C | 73% | 1010.6 hPa | 0 mm | - | 0 W/m² | - |
| 1778045725 | 18.33° C | 72% | 1010.7 hPa | 0 mm | - | 0 W/m² | - |
| 1778045422 | 18.33° C | 71% | 1010.6 hPa | 0 mm | - | 0 W/m² | - |
| 1778045121 | 19.44° C | 69% | 1010.6 hPa | 1.78 mm | - | 0 W/m² | - |
| 1778044818 | 20° C | 65% | 1010.8 hPa | 1.78 mm | - | 0 W/m² | - |
| 1778044515 | 20° C | 61% | 1011.1 hPa | 0 mm | - | 0 W/m² | - |
* Rain latest hour (hover to see other rain measurements)
** Current wind speed in m/s (hover to see current wind gust speed)